sensor_id;sensor_type;location;lat;lon;timestamp;P1;durP1;ratioP1;P2;durP2;ratioP2
18899;SDS011;9582;52.018;6.306;2024-02-26T00:01:00;4.67;;;4.27;;
18899;SDS011;9582;52.018;6.306;2024-02-26T00:03:27;5.17;;;4.20;;
18899;SDS011;9582;52.018;6.306;2024-02-26T00:05:53;5.43;;;4.10;;
18899;SDS011;9582;52.018;6.306;2024-02-26T00:08:21;6.60;;;4.67;;
18899;SDS011;9582;52.018;6.306;2024-02-26T00:10:48;5.43;;;3.90;;
18899;SDS011;9582;52.018;6.306;2024-02-26T00:13:14;4.53;;;4.13;;
18899;SDS011;9582;52.018;6.306;2024-02-26T00:15:41;4.70;;;4.00;;
18899;SDS011;9582;52.018;6.306;2024-02-26T00:18:09;4.43;;;4.03;;
18899;SDS011;9582;52.018;6.306;2024-02-26T00:20:35;4.43;;;3.87;;
18899;SDS011;9582;52.018;6.306;2024-02-26T00:23:02;4.43;;;4.03;;
18899;SDS011;9582;52.018;6.306;2024-02-26T00:25:29;4.83;;;3.90;;
18899;SDS011;9582;52.018;6.306;2024-02-26T00:27:55;4.43;;;4.03;;
18899;SDS011;9582;52.018;6.306;2024-02-26T00:30:22;4.03;;;3.60;;
18899;SDS011;9582;52.018;6.306;2024-02-26T00:32:49;4.77;;;3.90;;
18899;SDS011;9582;52.018;6.306;2024-02-26T00:35:17;4.50;;;3.70;;
18899;SDS011;9582;52.018;6.306;2024-02-26T00:37:45;4.03;;;3.63;;
18899;SDS011;9582;52.018;6.306;2024-02-26T00:40:12;5.43;;;4.10;;
18899;SDS011;9582;52.018;6.306;2024-02-26T00:42:39;4.77;;;4.17;;
18899;SDS011;9582;52.018;6.306;2024-02-26T00:45:10;4.30;;;3.47;;
18899;SDS011;9582;52.018;6.306;2024-02-26T00:47:37;4.00;;;3.70;;
18899;SDS011;9582;52.018;6.306;2024-02-26T00:50:06;4.10;;;3.47;;
18899;SDS011;9582;52.018;6.306;2024-02-26T00:52:35;6.33;;;3.53;;
18899;SDS011;9582;52.018;6.306;2024-02-26T00:55:02;5.50;;;3.77;;
18899;SDS011;9582;52.018;6.306;2024-02-26T00:57:29;4.30;;;3.50;;
18899;SDS011;9582;52.018;6.306;2024-02-26T00:59:56;4.47;;;4.03;;
18899;SDS011;9582;52.018;6.306;2024-02-26T01:02:22;5.23;;;3.93;;
18899;SDS011;9582;52.018;6.306;2024-02-26T01:04:49;4.00;;;3.57;;
18899;SDS011;9582;52.018;6.306;2024-02-26T01:07:16;4.30;;;3.80;;
18899;SDS011;9582;52.018;6.306;2024-02-26T01:09:44;4.63;;;3.53;;
18899;SDS011;9582;52.018;6.306;2024-02-26T01:12:10;4.83;;;3.60;;
18899;SDS011;9582;52.018;6.306;2024-02-26T01:14:37;3.83;;;3.53;;
18899;SDS011;9582;52.018;6.306;2024-02-26T01:17:03;4.57;;;3.63;;
18899;SDS011;9582;52.018;6.306;2024-02-26T01:19:30;4.33;;;3.37;;
18899;SDS011;9582;52.018;6.306;2024-02-26T01:21:57;5.13;;;3.57;;
18899;SDS011;9582;52.018;6.306;2024-02-26T01:24:23;5.83;;;3.87;;
18899;SDS011;9582;52.018;6.306;2024-02-26T01:26:51;4.77;;;3.60;;
18899;SDS011;9582;52.018;6.306;2024-02-26T01:29:18;3.23;;;2.87;;
18899;SDS011;9582;52.018;6.306;2024-02-26T01:31:44;4.97;;;4.23;;
18899;SDS011;9582;52.018;6.306;2024-02-26T01:34:11;4.03;;;3.67;;
18899;SDS011;9582;52.018;6.306;2024-02-26T01:36:39;3.63;;;3.33;;
18899;SDS011;9582;52.018;6.306;2024-02-26T01:39:06;4.50;;;3.50;;
18899;SDS011;9582;52.018;6.306;2024-02-26T01:41:32;5.03;;;3.47;;
18899;SDS011;9582;52.018;6.306;2024-02-26T01:44:00;5.20;;;4.00;;
18899;SDS011;9582;52.018;6.306;2024-02-26T01:46:27;4.87;;;3.37;;
18899;SDS011;9582;52.018;6.306;2024-02-26T01:48:56;4.40;;;3.70;;
18899;SDS011;9582;52.018;6.306;2024-02-26T01:51:22;5.90;;;4.13;;
18899;SDS011;9582;52.018;6.306;2024-02-26T01:53:49;5.90;;;3.97;;
18899;SDS011;9582;52.018;6.306;2024-02-26T01:56:16;6.03;;;3.70;;
18899;SDS011;9582;52.018;6.306;2024-02-26T01:58:44;6.13;;;4.00;;
18899;SDS011;9582;52.018;6.306;2024-02-26T02:01:13;4.33;;;3.93;;
18899;SDS011;9582;52.018;6.306;2024-02-26T02:03:41;4.77;;;3.40;;
18899;SDS011;9582;52.018;6.306;2024-02-26T02:06:09;5.07;;;3.73;;
18899;SDS011;9582;52.018;6.306;2024-02-26T02:08:35;6.10;;;3.90;;
18899;SDS011;9582;52.018;6.306;2024-02-26T02:11:03;4.20;;;3.40;;
18899;SDS011;9582;52.018;6.306;2024-02-26T02:13:31;4.93;;;3.67;;
18899;SDS011;9582;52.018;6.306;2024-02-26T02:15:57;5.77;;;3.50;;
18899;SDS011;9582;52.018;6.306;2024-02-26T02:18:25;3.70;;;3.27;;
18899;SDS011;9582;52.018;6.306;2024-02-26T02:20:54;4.13;;;3.37;;
18899;SDS011;9582;52.018;6.306;2024-02-26T02:23:24;4.63;;;3.60;;
18899;SDS011;9582;52.018;6.306;2024-02-26T02:25:51;4.10;;;3.70;;
18899;SDS011;9582;52.018;6.306;2024-02-26T02:28:18;4.40;;;3.70;;
18899;SDS011;9582;52.018;6.306;2024-02-26T02:30:45;3.67;;;3.37;;
18899;SDS011;9582;52.018;6.306;2024-02-26T02:33:11;5.30;;;4.00;;
18899;SDS011;9582;52.018;6.306;2024-02-26T02:35:40;3.67;;;3.37;;
18899;SDS011;9582;52.018;6.306;2024-02-26T02:38:08;3.87;;;3.47;;
18899;SDS011;9582;52.018;6.306;2024-02-26T02:40:35;3.70;;;3.00;;
18899;SDS011;9582;52.018;6.306;2024-02-26T02:43:02;4.17;;;2.97;;
18899;SDS011;9582;52.018;6.306;2024-02-26T02:45:29;4.50;;;3.07;;
18899;SDS011;9582;52.018;6.306;2024-02-26T02:47:56;3.93;;;3.07;;
18899;SDS011;9582;52.018;6.306;2024-02-26T02:50:23;5.43;;;3.80;;
18899;SDS011;9582;52.018;6.306;2024-02-26T02:52:50;3.80;;;3.20;;
18899;SDS011;9582;52.018;6.306;2024-02-26T02:55:18;4.17;;;3.77;;
18899;SDS011;9582;52.018;6.306;2024-02-26T02:57:44;3.90;;;3.50;;
18899;SDS011;9582;52.018;6.306;2024-02-26T03:00:11;4.70;;;3.80;;
18899;SDS011;9582;52.018;6.306;2024-02-26T03:02:38;3.70;;;3.40;;
18899;SDS011;9582;52.018;6.306;2024-02-26T03:05:05;4.23;;;3.70;;
18899;SDS011;9582;52.018;6.306;2024-02-26T03:07:31;5.10;;;3.80;;
18899;SDS011;9582;52.018;6.306;2024-02-26T03:09:58;4.33;;;3.93;;
18899;SDS011;9582;52.018;6.306;2024-02-26T03:12:26;4.20;;;3.80;;
18899;SDS011;9582;52.018;6.306;2024-02-26T03:14:53;5.00;;;3.87;;
18899;SDS011;9582;52.018;6.306;2024-02-26T03:17:20;4.47;;;3.73;;
18899;SDS011;9582;52.018;6.306;2024-02-26T03:19:49;5.20;;;3.10;;
18899;SDS011;9582;52.018;6.306;2024-02-26T03:22:18;4.83;;;3.90;;
18899;SDS011;9582;52.018;6.306;2024-02-26T03:24:45;5.40;;;4.00;;
18899;SDS011;9582;52.018;6.306;2024-02-26T03:27:11;4.70;;;3.90;;
18899;SDS011;9582;52.018;6.306;2024-02-26T03:29:39;4.37;;;3.97;;
18899;SDS011;9582;52.018;6.306;2024-02-26T03:32:06;4.50;;;3.90;;
18899;SDS011;9582;52.018;6.306;2024-02-26T03:34:33;5.10;;;3.97;;
18899;SDS011;9582;52.018;6.306;2024-02-26T03:37:00;5.27;;;4.07;;
18899;SDS011;9582;52.018;6.306;2024-02-26T03:39:27;4.80;;;3.77;;
18899;SDS011;9582;52.018;6.306;2024-02-26T03:41:53;5.07;;;4.30;;
18899;SDS011;9582;52.018;6.306;2024-02-26T03:44:20;5.37;;;4.03;;
18899;SDS011;9582;52.018;6.306;2024-02-26T03:46:48;5.00;;;4.13;;
18899;SDS011;9582;52.018;6.306;2024-02-26T03:49:15;5.33;;;4.27;;
18899;SDS011;9582;52.018;6.306;2024-02-26T03:51:41;4.90;;;4.10;;
18899;SDS011;9582;52.018;6.306;2024-02-26T03:54:08;5.07;;;4.27;;
18899;SDS011;9582;52.018;6.306;2024-02-26T03:56:35;5.30;;;4.13;;
18899;SDS011;9582;52.018;6.306;2024-02-26T03:59:01;4.87;;;4.07;;
18899;SDS011;9582;52.018;6.306;2024-02-26T04:01:28;5.67;;;4.13;;
18899;SDS011;9582;52.018;6.306;2024-02-26T04:03:56;5.07;;;4.53;;
18899;SDS011;9582;52.018;6.306;2024-02-26T04:06:23;5.07;;;4.57;;
18899;SDS011;9582;52.018;6.306;2024-02-26T04:08:49;5.97;;;4.40;;
18899;SDS011;9582;52.018;6.306;2024-02-26T04:11:16;4.90;;;4.40;;
18899;SDS011;9582;52.018;6.306;2024-02-26T04:13:44;5.07;;;4.53;;
18899;SDS011;9582;52.018;6.306;2024-02-26T04:16:14;5.00;;;3.90;;
18899;SDS011;9582;52.018;6.306;2024-02-26T04:18:41;5.73;;;4.47;;
18899;SDS011;9582;52.018;6.306;2024-02-26T04:21:09;6.53;;;4.60;;
18899;SDS011;9582;52.018;6.306;2024-02-26T04:23:36;5.30;;;4.17;;
18899;SDS011;9582;52.018;6.306;2024-02-26T04:26:03;5.13;;;4.63;;
18899;SDS011;9582;52.018;6.306;2024-02-26T04:28:30;6.43;;;4.60;;
18899;SDS011;9582;52.018;6.306;2024-02-26T04:30:56;5.73;;;4.17;;
18899;SDS011;9582;52.018;6.306;2024-02-26T04:33:23;4.70;;;4.13;;
18899;SDS011;9582;52.018;6.306;2024-02-26T04:35:49;4.53;;;3.97;;
18899;SDS011;9582;52.018;6.306;2024-02-26T04:38:17;4.73;;;4.23;;
18899;SDS011;9582;52.018;6.306;2024-02-26T04:40:44;4.50;;;3.53;;
18899;SDS011;9582;52.018;6.306;2024-02-26T04:43:12;4.10;;;3.27;;
18899;SDS011;9582;52.018;6.306;2024-02-26T04:45:39;4.47;;;3.67;;
18899;SDS011;9582;52.018;6.306;2024-02-26T04:48:06;4.30;;;3.90;;
18899;SDS011;9582;52.018;6.306;2024-02-26T04:50:33;4.00;;;3.60;;
18899;SDS011;9582;52.018;6.306;2024-02-26T04:53:00;4.87;;;3.47;;
18899;SDS011;9582;52.018;6.306;2024-02-26T04:55:28;5.03;;;4.03;;
18899;SDS011;9582;52.018;6.306;2024-02-26T04:57:54;4.30;;;3.90;;
18899;SDS011;9582;52.018;6.306;2024-02-26T05:00:21;4.83;;;4.03;;
18899;SDS011;9582;52.018;6.306;2024-02-26T05:02:47;5.10;;;3.60;;
18899;SDS011;9582;52.018;6.306;2024-02-26T05:05:14;4.30;;;3.70;;
18899;SDS011;9582;52.018;6.306;2024-02-26T05:07:41;4.87;;;3.67;;
18899;SDS011;9582;52.018;6.306;2024-02-26T05:10:08;5.13;;;3.53;;
18899;SDS011;9582;52.018;6.306;2024-02-26T05:12:36;4.70;;;3.10;;
18899;SDS011;9582;52.018;6.306;2024-02-26T05:15:04;3.00;;;2.70;;
18899;SDS011;9582;52.018;6.306;2024-02-26T05:17:31;4.53;;;3.70;;
18899;SDS011;9582;52.018;6.306;2024-02-26T05:19:58;3.57;;;3.27;;
18899;SDS011;9582;52.018;6.306;2024-02-26T05:22:24;4.37;;;3.90;;
18899;SDS011;9582;52.018;6.306;2024-02-26T05:24:51;3.43;;;3.13;;
18899;SDS011;9582;52.018;6.306;2024-02-26T05:27:17;5.70;;;4.10;;
18899;SDS011;9582;52.018;6.306;2024-02-26T05:29:45;5.53;;;3.77;;
18899;SDS011;9582;52.018;6.306;2024-02-26T05:32:12;6.17;;;4.30;;
18899;SDS011;9582;52.018;6.306;2024-02-26T05:34:38;4.20;;;3.40;;
18899;SDS011;9582;52.018;6.306;2024-02-26T05:37:06;6.27;;;4.23;;
18899;SDS011;9582;52.018;6.306;2024-02-26T05:39:33;6.93;;;5.03;;
18899;SDS011;9582;52.018;6.306;2024-02-26T05:42:00;5.87;;;4.70;;
18899;SDS011;9582;52.018;6.306;2024-02-26T05:44:26;5.23;;;4.23;;
18899;SDS011;9582;52.018;6.306;2024-02-26T05:46:54;4.90;;;4.40;;
18899;SDS011;9582;52.018;6.306;2024-02-26T05:49:21;5.43;;;4.50;;
18899;SDS011;9582;52.018;6.306;2024-02-26T05:51:48;5.50;;;4.70;;
18899;SDS011;9582;52.018;6.306;2024-02-26T05:54:14;6.50;;;4.40;;
18899;SDS011;9582;52.018;6.306;2024-02-26T05:56:41;5.17;;;4.17;;
18899;SDS011;9582;52.018;6.306;2024-02-26T05:59:08;6.23;;;4.43;;
18899;SDS011;9582;52.018;6.306;2024-02-26T06:01:35;6.20;;;3.93;;
18899;SDS011;9582;52.018;6.306;2024-02-26T06:04:03;5.73;;;4.97;;
18899;SDS011;9582;52.018;6.306;2024-02-26T06:06:30;6.73;;;4.23;;
18899;SDS011;9582;52.018;6.306;2024-02-26T06:08:57;5.00;;;4.50;;
18899;SDS011;9582;52.018;6.306;2024-02-26T06:11:23;6.27;;;4.03;;
18899;SDS011;9582;52.018;6.306;2024-02-26T06:13:50;6.07;;;4.60;;
18899;SDS011;9582;52.018;6.306;2024-02-26T06:16:17;5.60;;;4.33;;
18899;SDS011;9582;52.018;6.306;2024-02-26T06:18:43;4.30;;;3.70;;
18899;SDS011;9582;52.018;6.306;2024-02-26T06:21:11;5.60;;;4.20;;
18899;SDS011;9582;52.018;6.306;2024-02-26T06:23:38;6.93;;;4.37;;
18899;SDS011;9582;52.018;6.306;2024-02-26T06:26:05;5.90;;;3.97;;
18899;SDS011;9582;52.018;6.306;2024-02-26T06:28:31;7.93;;;4.47;;
18899;SDS011;9582;52.018;6.306;2024-02-26T06:31:00;4.23;;;3.70;;
18899;SDS011;9582;52.018;6.306;2024-02-26T06:33:27;4.67;;;3.47;;
18899;SDS011;9582;52.018;6.306;2024-02-26T06:35:54;4.30;;;3.63;;
18899;SDS011;9582;52.018;6.306;2024-02-26T06:38:22;4.13;;;3.33;;
18899;SDS011;9582;52.018;6.306;2024-02-26T06:40:49;5.80;;;4.57;;
18899;SDS011;9582;52.018;6.306;2024-02-26T06:43:16;6.60;;;4.70;;
18899;SDS011;9582;52.018;6.306;2024-02-26T06:45:42;4.67;;;3.53;;
18899;SDS011;9582;52.018;6.306;2024-02-26T06:48:09;3.97;;;3.53;;
18899;SDS011;9582;52.018;6.306;2024-02-26T06:50:36;5.13;;;3.87;;
18899;SDS011;9582;52.018;6.306;2024-02-26T06:53:02;4.70;;;3.70;;
18899;SDS011;9582;52.018;6.306;2024-02-26T06:55:31;5.07;;;3.47;;
18899;SDS011;9582;52.018;6.306;2024-02-26T06:57:57;3.97;;;3.57;;
18899;SDS011;9582;52.018;6.306;2024-02-26T07:00:24;4.07;;;3.50;;
18899;SDS011;9582;52.018;6.306;2024-02-26T07:02:50;8.63;;;4.30;;
18899;SDS011;9582;52.018;6.306;2024-02-26T07:05:17;4.57;;;4.07;;
18899;SDS011;9582;52.018;6.306;2024-02-26T07:07:44;5.83;;;4.70;;
18899;SDS011;9582;52.018;6.306;2024-02-26T07:10:10;5.30;;;4.23;;
18899;SDS011;9582;52.018;6.306;2024-02-26T07:12:38;5.90;;;4.80;;
18899;SDS011;9582;52.018;6.306;2024-02-26T07:15:05;4.73;;;4.20;;
18899;SDS011;9582;52.018;6.306;2024-02-26T07:17:33;5.90;;;3.97;;
18899;SDS011;9582;52.018;6.306;2024-02-26T07:20:00;6.07;;;4.00;;
18899;SDS011;9582;52.018;6.306;2024-02-26T07:22:29;6.17;;;4.60;;
18899;SDS011;9582;52.018;6.306;2024-02-26T07:24:56;4.70;;;3.90;;
18899;SDS011;9582;52.018;6.306;2024-02-26T07:27:23;4.30;;;3.90;;
18899;SDS011;9582;52.018;6.306;2024-02-26T07:29:51;5.20;;;3.87;;
18899;SDS011;9582;52.018;6.306;2024-02-26T07:32:17;6.80;;;5.17;;
18899;SDS011;9582;52.018;6.306;2024-02-26T07:34:44;5.87;;;4.33;;
18899;SDS011;9582;52.018;6.306;2024-02-26T07:37:10;5.57;;;4.60;;
18899;SDS011;9582;52.018;6.306;2024-02-26T07:39:37;5.43;;;4.30;;
18899;SDS011;9582;52.018;6.306;2024-02-26T07:42:04;4.03;;;3.50;;
18899;SDS011;9582;52.018;6.306;2024-02-26T07:44:32;4.33;;;3.33;;
18899;SDS011;9582;52.018;6.306;2024-02-26T07:47:00;5.37;;;4.23;;
18899;SDS011;9582;52.018;6.306;2024-02-26T07:49:28;4.40;;;3.53;;
18899;SDS011;9582;52.018;6.306;2024-02-26T07:51:54;6.00;;;4.17;;
18899;SDS011;9582;52.018;6.306;2024-02-26T07:54:23;5.90;;;4.43;;
18899;SDS011;9582;52.018;6.306;2024-02-26T07:56:49;4.73;;;4.23;;
18899;SDS011;9582;52.018;6.306;2024-02-26T07:59:16;6.53;;;3.70;;
18899;SDS011;9582;52.018;6.306;2024-02-26T08:01:43;7.70;;;5.40;;
18899;SDS011;9582;52.018;6.306;2024-02-26T08:04:12;5.67;;;4.27;;
18899;SDS011;9582;52.018;6.306;2024-02-26T08:06:38;5.37;;;4.17;;
18899;SDS011;9582;52.018;6.306;2024-02-26T08:09:05;9.10;;;6.23;;
18899;SDS011;9582;52.018;6.306;2024-02-26T08:11:32;8.27;;;6.13;;
18899;SDS011;9582;52.018;6.306;2024-02-26T08:13:58;7.40;;;5.67;;
18899;SDS011;9582;52.018;6.306;2024-02-26T08:16:25;7.63;;;5.60;;
18899;SDS011;9582;52.018;6.306;2024-02-26T08:18:51;7.47;;;5.00;;
18899;SDS011;9582;52.018;6.306;2024-02-26T08:21:19;7.63;;;5.70;;
18899;SDS011;9582;52.018;6.306;2024-02-26T08:23:46;7.37;;;6.20;;
18899;SDS011;9582;52.018;6.306;2024-02-26T08:26:13;7.97;;;5.80;;
18899;SDS011;9582;52.018;6.306;2024-02-26T08:28:40;10.50;;;7.43;;
18899;SDS011;9582;52.018;6.306;2024-02-26T08:31:06;6.70;;;5.77;;
18899;SDS011;9582;52.018;6.306;2024-02-26T08:33:33;7.63;;;5.57;;
18899;SDS011;9582;52.018;6.306;2024-02-26T08:36:03;6.23;;;4.67;;
18899;SDS011;9582;52.018;6.306;2024-02-26T08:38:31;7.37;;;5.27;;
18899;SDS011;9582;52.018;6.306;2024-02-26T08:41:00;9.47;;;7.43;;
18899;SDS011;9582;52.018;6.306;2024-02-26T08:43:27;8.63;;;6.23;;
18899;SDS011;9582;52.018;6.306;2024-02-26T08:45:53;9.50;;;6.37;;
18899;SDS011;9582;52.018;6.306;2024-02-26T08:48:21;9.30;;;7.47;;
18899;SDS011;9582;52.018;6.306;2024-02-26T08:50:47;11.17;;;7.60;;
18899;SDS011;9582;52.018;6.306;2024-02-26T08:53:13;11.40;;;7.90;;
18899;SDS011;9582;52.018;6.306;2024-02-26T08:55:41;9.73;;;7.30;;
18899;SDS011;9582;52.018;6.306;2024-02-26T08:58:08;11.07;;;8.03;;
18899;SDS011;9582;52.018;6.306;2024-02-26T09:00:34;8.70;;;6.73;;
18899;SDS011;9582;52.018;6.306;2024-02-26T09:03:01;9.03;;;5.97;;
18899;SDS011;9582;52.018;6.306;2024-02-26T09:05:27;12.77;;;8.10;;
18899;SDS011;9582;52.018;6.306;2024-02-26T09:07:54;7.90;;;6.33;;
18899;SDS011;9582;52.018;6.306;2024-02-26T09:10:21;7.17;;;4.67;;
18899;SDS011;9582;52.018;6.306;2024-02-26T09:12:49;8.37;;;6.03;;
18899;SDS011;9582;52.018;6.306;2024-02-26T09:15:15;7.20;;;5.13;;
18899;SDS011;9582;52.018;6.306;2024-02-26T09:17:42;8.93;;;6.67;;
18899;SDS011;9582;52.018;6.306;2024-02-26T09:20:10;6.93;;;4.77;;
18899;SDS011;9582;52.018;6.306;2024-02-26T09:22:38;9.27;;;5.53;;
18899;SDS011;9582;52.018;6.306;2024-02-26T09:25:05;5.87;;;4.50;;
18899;SDS011;9582;52.018;6.306;2024-02-26T09:27:32;7.63;;;6.10;;
18899;SDS011;9582;52.018;6.306;2024-02-26T09:30:00;8.30;;;5.70;;
18899;SDS011;9582;52.018;6.306;2024-02-26T09:32:27;9.40;;;6.10;;
18899;SDS011;9582;52.018;6.306;2024-02-26T09:34:54;8.43;;;5.93;;
18899;SDS011;9582;52.018;6.306;2024-02-26T09:37:20;7.63;;;5.50;;
18899;SDS011;9582;52.018;6.306;2024-02-26T09:39:47;7.93;;;5.33;;
18899;SDS011;9582;52.018;6.306;2024-02-26T09:42:14;9.87;;;6.10;;
18899;SDS011;9582;52.018;6.306;2024-02-26T09:44:44;13.13;;;7.43;;
18899;SDS011;9582;52.018;6.306;2024-02-26T09:47:13;10.27;;;6.37;;
18899;SDS011;9582;52.018;6.306;2024-02-26T09:49:42;8.77;;;5.27;;
18899;SDS011;9582;52.018;6.306;2024-02-26T09:52:09;8.00;;;5.63;;
18899;SDS011;9582;52.018;6.306;2024-02-26T09:54:36;7.97;;;5.40;;
18899;SDS011;9582;52.018;6.306;2024-02-26T09:57:03;8.00;;;5.77;;
18899;SDS011;9582;52.018;6.306;2024-02-26T09:59:34;10.77;;;7.63;;
18899;SDS011;9582;52.018;6.306;2024-02-26T10:02:05;12.37;;;8.67;;
18899;SDS011;9582;52.018;6.306;2024-02-26T10:04:36;8.43;;;5.30;;
18899;SDS011;9582;52.018;6.306;2024-02-26T10:07:03;8.23;;;5.77;;
18899;SDS011;9582;52.018;6.306;2024-02-26T10:09:30;9.83;;;6.13;;
18899;SDS011;9582;52.018;6.306;2024-02-26T10:11:58;10.57;;;7.17;;
18899;SDS011;9582;52.018;6.306;2024-02-26T10:14:25;10.13;;;6.87;;
18899;SDS011;9582;52.018;6.306;2024-02-26T10:16:51;14.97;;;8.30;;
18899;SDS011;9582;52.018;6.306;2024-02-26T10:19:24;14.67;;;9.20;;
18899;SDS011;9582;52.018;6.306;2024-02-26T10:21:55;9.67;;;6.73;;
18899;SDS011;9582;52.018;6.306;2024-02-26T10:24:22;13.23;;;7.47;;
18899;SDS011;9582;52.018;6.306;2024-02-26T10:26:50;13.27;;;8.00;;
18899;SDS011;9582;52.018;6.306;2024-02-26T10:29:17;12.30;;;8.93;;
18899;SDS011;9582;52.018;6.306;2024-02-26T10:31:44;11.43;;;7.03;;
18899;SDS011;9582;52.018;6.306;2024-02-26T10:34:11;13.73;;;8.30;;
18899;SDS011;9582;52.018;6.306;2024-02-26T10:36:38;12.33;;;7.57;;
18899;SDS011;9582;52.018;6.306;2024-02-26T10:39:07;13.90;;;8.27;;
18899;SDS011;9582;52.018;6.306;2024-02-26T10:41:34;10.07;;;7.13;;
18899;SDS011;9582;52.018;6.306;2024-02-26T10:44:00;10.83;;;6.80;;
18899;SDS011;9582;52.018;6.306;2024-02-26T10:46:27;11.37;;;7.73;;
18899;SDS011;9582;52.018;6.306;2024-02-26T10:48:54;12.50;;;7.07;;
18899;SDS011;9582;52.018;6.306;2024-02-26T10:51:27;12.50;;;8.60;;
18899;SDS011;9582;52.018;6.306;2024-02-26T10:53:57;15.93;;;10.03;;
18899;SDS011;9582;52.018;6.306;2024-02-26T10:56:28;15.67;;;9.40;;
18899;SDS011;9582;52.018;6.306;2024-02-26T10:58:55;11.00;;;7.47;;
18899;SDS011;9582;52.018;6.306;2024-02-26T11:01:23;13.30;;;8.10;;
18899;SDS011;9582;52.018;6.306;2024-02-26T11:03:51;17.20;;;10.97;;
18899;SDS011;9582;52.018;6.306;2024-02-26T11:06:18;13.97;;;8.77;;
18899;SDS011;9582;52.018;6.306;2024-02-26T11:08:47;16.37;;;9.10;;
18899;SDS011;9582;52.018;6.306;2024-02-26T11:11:15;15.90;;;10.77;;
18899;SDS011;9582;52.018;6.306;2024-02-26T11:13:44;15.30;;;9.83;;
18899;SDS011;9582;52.018;6.306;2024-02-26T11:16:15;16.40;;;10.93;;
18899;SDS011;9582;52.018;6.306;2024-02-26T11:18:42;14.63;;;10.17;;
18899;SDS011;9582;52.018;6.306;2024-02-26T11:21:11;15.40;;;8.30;;
18899;SDS011;9582;52.018;6.306;2024-02-26T11:23:39;14.30;;;8.63;;
18899;SDS011;9582;52.018;6.306;2024-02-26T11:26:05;15.03;;;10.70;;
18899;SDS011;9582;52.018;6.306;2024-02-26T11:28:35;14.97;;;9.33;;
18899;SDS011;9582;52.018;6.306;2024-02-26T11:31:04;12.30;;;7.83;;
18899;SDS011;9582;52.018;6.306;2024-02-26T11:33:32;11.87;;;7.27;;
18899;SDS011;9582;52.018;6.306;2024-02-26T11:36:01;11.63;;;6.60;;
18899;SDS011;9582;52.018;6.306;2024-02-26T11:38:28;14.07;;;9.33;;
18899;SDS011;9582;52.018;6.306;2024-02-26T11:40:55;14.30;;;8.07;;
18899;SDS011;9582;52.018;6.306;2024-02-26T11:43:23;15.57;;;10.20;;
18899;SDS011;9582;52.018;6.306;2024-02-26T11:48:55;9.27;;;6.63;;
18899;SDS011;9582;52.018;6.306;2024-02-26T11:51:27;11.90;;;6.90;;
18899;SDS011;9582;52.018;6.306;2024-02-26T11:53:54;7.87;;;5.37;;
18899;SDS011;9582;52.018;6.306;2024-02-26T11:56:24;11.03;;;7.40;;
18899;SDS011;9582;52.018;6.306;2024-02-26T11:58:59;9.67;;;5.90;;
18899;SDS011;9582;52.018;6.306;2024-02-26T12:01:38;9.50;;;5.63;;
18899;SDS011;9582;52.018;6.306;2024-02-26T12:04:06;10.17;;;6.00;;
18899;SDS011;9582;52.018;6.306;2024-02-26T12:06:40;13.03;;;7.43;;
18899;SDS011;9582;52.018;6.306;2024-02-26T12:09:08;11.03;;;7.63;;
18899;SDS011;9582;52.018;6.306;2024-02-26T12:11:37;11.43;;;6.77;;
18899;SDS011;9582;52.018;6.306;2024-02-26T12:14:05;10.23;;;6.60;;
18899;SDS011;9582;52.018;6.306;2024-02-26T12:16:38;5.80;;;4.27;;
18899;SDS011;9582;52.018;6.306;2024-02-26T12:19:08;7.47;;;5.27;;
18899;SDS011;9582;52.018;6.306;2024-02-26T12:21:36;9.87;;;6.87;;
18899;SDS011;9582;52.018;6.306;2024-02-26T12:24:09;7.60;;;5.17;;
18899;SDS011;9582;52.018;6.306;2024-02-26T12:26:37;9.27;;;6.07;;
18899;SDS011;9582;52.018;6.306;2024-02-26T12:29:04;6.73;;;4.93;;
18899;SDS011;9582;52.018;6.306;2024-02-26T12:31:31;7.20;;;5.13;;
18899;SDS011;9582;52.018;6.306;2024-02-26T12:33:59;6.60;;;4.80;;
18899;SDS011;9582;52.018;6.306;2024-02-26T12:36:26;8.00;;;6.20;;
18899;SDS011;9582;52.018;6.306;2024-02-26T12:38:53;6.47;;;4.07;;
18899;SDS011;9582;52.018;6.306;2024-02-26T12:41:21;6.47;;;4.43;;
18899;SDS011;9582;52.018;6.306;2024-02-26T12:43:48;7.53;;;5.23;;
18899;SDS011;9582;52.018;6.306;2024-02-26T12:46:14;10.93;;;6.27;;
18899;SDS011;9582;52.018;6.306;2024-02-26T12:48:42;7.50;;;4.80;;
18899;SDS011;9582;52.018;6.306;2024-02-26T12:51:11;7.30;;;4.90;;
18899;SDS011;9582;52.018;6.306;2024-02-26T12:53:38;7.77;;;4.70;;
18899;SDS011;9582;52.018;6.306;2024-02-26T12:56:05;6.13;;;4.00;;
18899;SDS011;9582;52.018;6.306;2024-02-26T12:58:34;6.67;;;5.47;;
18899;SDS011;9582;52.018;6.306;2024-02-26T13:01:03;6.83;;;4.77;;
18899;SDS011;9582;52.018;6.306;2024-02-26T13:03:30;5.73;;;3.83;;
18899;SDS011;9582;52.018;6.306;2024-02-26T13:05:57;8.47;;;5.37;;
18899;SDS011;9582;52.018;6.306;2024-02-26T13:08:26;7.47;;;4.77;;
18899;SDS011;9582;52.018;6.306;2024-02-26T13:10:52;6.10;;;4.77;;
18899;SDS011;9582;52.018;6.306;2024-02-26T13:13:19;6.87;;;4.77;;
18899;SDS011;9582;52.018;6.306;2024-02-26T13:15:46;6.40;;;4.50;;
18899;SDS011;9582;52.018;6.306;2024-02-26T13:18:13;10.30;;;4.93;;
18899;SDS011;9582;52.018;6.306;2024-02-26T13:20:40;6.73;;;5.20;;
18899;SDS011;9582;52.018;6.306;2024-02-26T13:23:08;11.57;;;5.37;;
18899;SDS011;9582;52.018;6.306;2024-02-26T13:25:38;7.60;;;4.87;;
18899;SDS011;9582;52.018;6.306;2024-02-26T13:28:06;7.50;;;5.00;;
18899;SDS011;9582;52.018;6.306;2024-02-26T13:30:34;8.80;;;5.33;;
18899;SDS011;9582;52.018;6.306;2024-02-26T13:33:07;8.53;;;6.27;;
18899;SDS011;9582;52.018;6.306;2024-02-26T13:35:34;8.73;;;5.93;;
18899;SDS011;9582;52.018;6.306;2024-02-26T13:38:02;7.00;;;4.57;;
18899;SDS011;9582;52.018;6.306;2024-02-26T13:40:29;7.83;;;5.77;;
18899;SDS011;9582;52.018;6.306;2024-02-26T13:42:57;6.83;;;5.17;;
18899;SDS011;9582;52.018;6.306;2024-02-26T13:45:23;5.90;;;3.77;;
18899;SDS011;9582;52.018;6.306;2024-02-26T13:47:50;8.67;;;6.20;;
18899;SDS011;9582;52.018;6.306;2024-02-26T13:50:16;7.43;;;5.17;;
18899;SDS011;9582;52.018;6.306;2024-02-26T13:52:46;8.93;;;4.67;;
18899;SDS011;9582;52.018;6.306;2024-02-26T13:55:18;6.33;;;4.63;;
18899;SDS011;9582;52.018;6.306;2024-02-26T13:57:44;7.07;;;5.70;;
18899;SDS011;9582;52.018;6.306;2024-02-26T14:00:13;6.50;;;4.33;;
18899;SDS011;9582;52.018;6.306;2024-02-26T14:02:40;7.63;;;5.80;;
18899;SDS011;9582;52.018;6.306;2024-02-26T14:05:07;8.00;;;5.67;;
18899;SDS011;9582;52.018;6.306;2024-02-26T14:07:34;7.63;;;5.40;;
18899;SDS011;9582;52.018;6.306;2024-02-26T14:10:00;8.73;;;5.53;;
18899;SDS011;9582;52.018;6.306;2024-02-26T14:12:27;6.27;;;4.43;;
18899;SDS011;9582;52.018;6.306;2024-02-26T14:14:54;7.13;;;4.80;;
18899;SDS011;9582;52.018;6.306;2024-02-26T14:17:22;6.30;;;4.60;;
18899;SDS011;9582;52.018;6.306;2024-02-26T14:19:49;6.43;;;5.10;;
18899;SDS011;9582;52.018;6.306;2024-02-26T14:22:15;6.07;;;4.10;;
18899;SDS011;9582;52.018;6.306;2024-02-26T14:24:42;8.03;;;5.53;;
18899;SDS011;9582;52.018;6.306;2024-02-26T14:27:10;6.17;;;4.03;;
18899;SDS011;9582;52.018;6.306;2024-02-26T14:29:39;7.80;;;5.10;;
18899;SDS011;9582;52.018;6.306;2024-02-26T14:32:07;6.80;;;5.10;;
18899;SDS011;9582;52.018;6.306;2024-02-26T14:34:35;9.47;;;6.07;;
18899;SDS011;9582;52.018;6.306;2024-02-26T14:37:02;7.23;;;4.90;;
18899;SDS011;9582;52.018;6.306;2024-02-26T14:39:29;8.07;;;5.20;;
18899;SDS011;9582;52.018;6.306;2024-02-26T14:41:56;8.63;;;5.10;;
18899;SDS011;9582;52.018;6.306;2024-02-26T14:44:23;7.53;;;5.13;;
18899;SDS011;9582;52.018;6.306;2024-02-26T14:46:50;9.13;;;3.80;;
18899;SDS011;9582;52.018;6.306;2024-02-26T14:49:16;7.87;;;4.63;;
18899;SDS011;9582;52.018;6.306;2024-02-26T14:51:44;7.83;;;5.80;;
18899;SDS011;9582;52.018;6.306;2024-02-26T14:54:11;7.77;;;4.97;;
18899;SDS011;9582;52.018;6.306;2024-02-26T14:56:38;8.53;;;5.87;;
18899;SDS011;9582;52.018;6.306;2024-02-26T14:59:05;9.33;;;5.53;;
18899;SDS011;9582;52.018;6.306;2024-02-26T15:01:32;6.03;;;4.87;;